createdAt,value
2017-12-29T00:00:49.999Z,57.24
2017-12-29T00:02:43.266Z,64.73
2017-12-29T00:03:43.200Z,61.30
2017-12-29T00:05:37.789Z,71.16
2017-12-29T00:06:37.676Z,72.77
2017-12-29T00:08:31.228Z,77.87
2017-12-29T00:09:31.021Z,78.53
2017-12-29T00:11:23.699Z,81.27
2017-12-29T00:12:23.529Z,83.17
2017-12-29T00:14:16.555Z,82.22
2017-12-29T00:15:16.268Z,77.87
2017-12-29T00:17:11.100Z,78.34
2017-12-29T00:18:11.048Z,77.12
2017-12-29T00:20:03.994Z,76.83
2017-12-29T00:21:03.980Z,76.64
2017-12-29T00:22:57.020Z,75.32
2017-12-29T00:23:56.595Z,76.07
2017-12-29T00:25:49.931Z,69.46
2017-12-29T00:26:49.547Z,76.17
2017-12-29T00:28:42.889Z,75.70
2017-12-29T00:29:42.470Z,78.34
2017-12-29T00:31:35.865Z,71.73
2017-12-29T00:32:35.737Z,77.12
2017-12-29T00:34:28.823Z,79.29
2017-12-29T00:35:28.690Z,79.67
2017-12-29T00:37:21.769Z,81.74
2017-12-29T00:38:21.464Z,80.62
2017-12-29T00:40:14.794Z,74.19
2017-12-29T00:41:14.276Z,74.09
2017-12-29T00:43:09.250Z,73.24
2017-12-29T00:44:09.084Z,73.71
2017-12-29T00:46:02.213Z,76.36
2017-12-29T00:47:02.097Z,78.06
2017-12-29T00:48:55.126Z,75.98
2017-12-29T00:49:55.014Z,74.00
2017-12-29T00:51:48.094Z,70.50
2017-12-29T00:52:47.970Z,71.26
2017-12-29T00:54:40.968Z,71.83
2017-12-29T00:55:40.590Z,75.26
2017-12-29T00:57:33.989Z,78.39
2017-12-29T00:58:34.320Z,79.33
2017-12-29T01:00:28.426Z,78.86
2017-12-29T01:01:28.376Z,78.20
2017-12-29T01:03:21.492Z,72.90
2017-12-29T01:04:20.998Z,73.09
2017-12-29T01:06:14.890Z,74.51
2017-12-29T01:07:14.789Z,71.95
2017-12-29T01:09:07.932Z,75.36
2017-12-29T01:10:07.761Z,77.63
2017-12-29T01:12:00.822Z,78.48
2017-12-29T01:13:00.706Z,80.08
2017-12-29T01:14:53.725Z,80.46
2017-12-29T01:15:53.724Z,84.72
2017-12-29T01:17:46.680Z,83.11
2017-12-29T01:18:46.486Z,80.94
2017-12-29T01:20:40.242Z,76.21
2017-12-29T01:21:39.872Z,74.98
2017-12-29T01:23:33.102Z,73.28
2017-12-29T01:24:33.002Z,72.62
2017-12-29T01:26:26.632Z,77.72
2017-12-29T01:27:26.313Z,77.44
2017-12-29T01:29:19.571Z,76.50
2017-12-29T01:30:19.467Z,78.29
2017-12-29T01:32:24.750Z,76.12
2017-12-29T01:33:24.268Z,77.63
2017-12-29T01:35:17.680Z,74.32
2017-12-29T01:36:17.249Z,74.88
2017-12-29T01:38:10.630Z,78.67
2017-12-29T01:39:10.946Z,79.14
2017-12-29T01:41:05.114Z,76.12
2017-12-29T01:42:05.015Z,75.55
2017-12-29T01:43:58.016Z,77.72
2017-12-29T01:44:57.945Z,77.15
2017-12-29T01:46:51.023Z,72.14
2017-12-29T01:47:51.001Z,72.52
2017-12-29T01:49:44.036Z,72.80
2017-12-29T01:50:43.837Z,79.14
2017-12-29T01:52:36.904Z,77.72
2017-12-29T01:53:36.849Z,75.26
2017-12-29T01:55:31.343Z,78.58
2017-12-29T01:56:31.243Z,76.31
2017-12-29T01:58:24.304Z,73.56
2017-12-29T01:59:24.226Z,72.62
2017-12-29T02:01:17.352Z,74.79
2017-12-29T02:02:17.213Z,77.63
2017-12-29T02:04:10.214Z,76.50
2017-12-29T02:05:09.919Z,75.26
2017-12-29T02:07:03.199Z,74.22
2017-12-29T02:08:03.119Z,74.32
2017-12-29T02:09:56.144Z,74.98
2017-12-29T02:10:55.783Z,73.66
2017-12-29T02:12:49.144Z,75.07
2017-12-29T02:13:48.782Z,74.69
2017-12-29T02:15:43.578Z,74.13
2017-12-29T02:16:43.527Z,72.71
2017-12-29T02:18:36.605Z,70.82
2017-12-29T02:19:36.491Z,72.52
2017-12-29T02:21:29.488Z,68.46
2017-12-29T02:22:29.133Z,71.48
2017-12-29T02:24:22.467Z,71.01
2017-12-29T02:25:22.392Z,72.14
2017-12-29T02:27:15.345Z,70.35
2017-12-29T02:28:15.784Z,70.35
2017-12-29T02:30:09.978Z,67.98
2017-12-29T02:31:09.614Z,67.32
2017-12-29T02:33:02.930Z,67.98
2017-12-29T02:34:02.800Z,69.12
2017-12-29T02:35:56.330Z,71.77
2017-12-29T02:36:56.326Z,71.20
2017-12-29T02:38:49.222Z,69.97
2017-12-29T02:39:49.177Z,71.11
2017-12-29T02:41:42.251Z,67.89
2017-12-29T02:42:42.147Z,67.98
2017-12-29T02:44:35.227Z,69.31
2017-12-29T02:45:34.726Z,63.26
2017-12-29T02:47:28.197Z,69.87
2017-12-29T02:48:27.708Z,70.25
2017-12-29T02:50:21.126Z,71.20
2017-12-29T02:51:21.025Z,74.13
2017-12-29T02:53:14.658Z,67.79
2017-12-29T02:54:14.254Z,67.03
2017-12-29T02:56:07.432Z,67.70
2017-12-29T02:57:07.110Z,66.85
2017-12-29T02:59:00.449Z,73.37
2017-12-29T03:00:00.374Z,70.16
2017-12-29T03:01:53.406Z,68.65
2017-12-29T03:02:53.056Z,67.03
2017-12-29T03:04:46.429Z,67.41
2017-12-29T03:05:46.069Z,71.86
2017-12-29T03:07:39.325Z,72.90
2017-12-29T03:08:38.925Z,65.24
2017-12-29T03:10:32.272Z,72.05
2017-12-29T03:11:32.226Z,72.80
2017-12-29T03:13:25.199Z,74.98
2017-12-29T03:14:25.203Z,74.60
2017-12-29T03:16:18.208Z,67.41
2017-12-29T03:17:17.777Z,72.24
2017-12-29T03:19:12.686Z,66.19
2017-12-29T03:20:12.360Z,65.91
2017-12-29T03:22:05.707Z,70.73
2017-12-29T03:23:05.231Z,69.31
2017-12-29T03:24:58.567Z,68.27
2017-12-29T03:25:58.530Z,67.32
2017-12-29T03:27:51.565Z,73.09
2017-12-29T03:28:51.445Z,67.22
2017-12-29T03:30:44.481Z,71.58
2017-12-29T03:31:44.123Z,66.47
2017-12-29T03:33:37.484Z,68.74
2017-12-29T03:34:37.051Z,67.03
2017-12-29T03:36:31.845Z,67.03
2017-12-29T03:37:31.481Z,69.49
2017-12-29T03:39:25.002Z,72.37
2017-12-29T03:40:24.867Z,71.23
2017-12-29T03:42:17.822Z,72.66
2017-12-29T03:43:17.464Z,71.80
2017-12-29T03:45:10.787Z,69.44
2017-12-29T03:46:10.705Z,66.19
2017-12-29T03:48:05.274Z,61.87
2017-12-29T03:49:04.904Z,63.54
2017-12-29T03:50:58.880Z,68.59
2017-12-29T03:51:58.688Z,68.30
2017-12-29T03:53:53.280Z,66.98
2017-12-29T03:54:53.710Z,71.52
2017-12-29T03:56:46.262Z,72.09
2017-12-29T03:57:46.077Z,70.76
2017-12-29T03:59:39.542Z,71.71
2017-12-29T04:00:39.560Z,74.74
2017-12-29T04:02:33.111Z,69.34
2017-12-29T04:03:33.039Z,71.42
2017-12-29T04:05:26.077Z,67.26
2017-12-29T04:06:25.824Z,70.48
2017-12-29T04:08:19.063Z,70.86
2017-12-29T04:09:18.731Z,70.76
2017-12-29T04:11:13.476Z,72.75
2017-12-29T04:12:13.042Z,74.93
2017-12-29T04:14:06.621Z,69.44
2017-12-29T04:15:06.403Z,71.42
2017-12-29T04:16:59.366Z,66.13
2017-12-29T04:17:59.334Z,67.93
2017-12-29T04:19:52.778Z,59.98
2017-12-29T04:20:52.333Z,63.67
2017-12-29T04:22:47.296Z,60.83
2017-12-29T04:23:46.815Z,62.31
2017-12-29T04:25:39.808Z,62.25
2017-12-29T04:26:40.216Z,63.95
2017-12-29T04:28:32.727Z,61.87
2017-12-29T04:29:32.374Z,65.05
2017-12-29T04:31:25.751Z,65.09
2017-12-29T04:32:25.277Z,66.22
2017-12-29T04:34:18.696Z,70.29
2017-12-29T04:35:18.578Z,73.13
2017-12-29T04:37:13.192Z,74.17
2017-12-29T04:38:13.119Z,72.85
2017-12-29T04:40:06.126Z,68.02
2017-12-29T04:41:05.708Z,65.56
2017-12-29T04:42:59.107Z,72.66
2017-12-29T04:43:59.053Z,71.33
2017-12-29T04:45:52.061Z,71.42
2017-12-29T04:46:51.591Z,72.28
2017-12-29T04:48:45.021Z,71.14
2017-12-29T04:49:44.851Z,73.88
2017-12-29T04:51:38.499Z,73.41
2017-12-29T04:52:38.388Z,76.15
2017-12-29T04:54:31.435Z,71.33
2017-12-29T04:55:31.326Z,70.86
2017-12-29T04:57:24.303Z,66.88
2017-12-29T04:58:24.266Z,68.59
2017-12-29T05:00:17.313Z,67.07
2017-12-29T05:01:16.904Z,72.28
2017-12-29T05:03:10.414Z,69.91
2017-12-29T05:04:10.705Z,68.96
2017-12-29T05:06:03.760Z,74.74
2017-12-29T05:07:03.722Z,73.03
2017-12-29T05:08:56.697Z,74.45
2017-12-29T05:09:56.606Z,74.07
2017-12-29T05:11:50.223Z,77.48
2017-12-29T05:12:50.052Z,73.41
2017-12-29T05:14:44.587Z,74.26
2017-12-29T05:15:44.618Z,69.82
2017-12-29T05:17:37.612Z,74.26
2017-12-29T05:18:37.518Z,67.36
2017-12-29T05:20:31.009Z,73.60
2017-12-29T05:21:31.004Z,72.37
2017-12-29T05:23:24.018Z,76.91
2017-12-29T05:24:23.581Z,74.93
2017-12-29T05:26:17.429Z,74.07
2017-12-29T05:27:17.409Z,76.06
2017-12-29T05:29:10.481Z,75.87
2017-12-29T05:30:10.343Z,72.09
2017-12-29T05:32:04.938Z,72.37
2017-12-29T05:33:05.294Z,77.29
2017-12-29T05:34:57.860Z,72.09
2017-12-29T05:35:57.558Z,79.56
2017-12-29T05:37:50.750Z,77.67
2017-12-29T05:38:50.379Z,71.99
2017-12-29T05:40:43.794Z,73.60
2017-12-29T05:41:43.790Z,76.53
2017-12-29T05:43:36.752Z,73.88
2017-12-29T05:44:36.637Z,75.12
2017-12-29T05:46:29.776Z,75.12
2017-12-29T05:47:29.595Z,77.01
2017-12-29T05:49:24.190Z,79.09
2017-12-29T05:50:23.745Z,71.99
2017-12-29T05:52:17.180Z,73.69
2017-12-29T05:53:17.063Z,77.20
2017-12-29T05:55:10.012Z,77.58
2017-12-29T05:56:10.023Z,77.10
2017-12-29T05:58:03.102Z,75.78
2017-12-29T05:59:02.986Z,76.25
2017-12-29T06:00:55.967Z,74.55
2017-12-29T06:01:55.568Z,77.20
2017-12-29T06:03:48.983Z,77.10
2017-12-29T06:04:48.932Z,76.15
2017-12-29T06:06:43.446Z,74.83
2017-12-29T06:07:43.397Z,72.62
2017-12-29T06:09:36.943Z,71.48
2017-12-29T06:10:36.815Z,74.88
2017-12-29T06:12:31.339Z,76.50
2017-12-29T06:13:31.236Z,77.58
2017-12-29T06:15:24.241Z,76.72
2017-12-29T06:16:23.946Z,77.01
2017-12-29T06:18:17.197Z,77.48
2017-12-29T06:19:16.774Z,76.06
2017-12-29T06:21:10.205Z,71.86
2017-12-29T06:22:10.166Z,74.32
2017-12-29T06:24:15.296Z,72.56
2017-12-29T06:25:15.266Z,72.62
2017-12-29T06:27:08.254Z,73.88
2017-12-29T06:28:08.253Z,76.91
2017-12-29T06:30:02.770Z,76.06
2017-12-29T06:31:02.772Z,77.76
2017-12-29T06:32:55.722Z,78.14
2017-12-29T06:33:55.623Z,78.99
2017-12-29T06:35:48.651Z,75.21
2017-12-29T06:36:48.581Z,75.59
2017-12-29T06:38:41.637Z,72.18
2017-12-29T06:39:41.606Z,75.96
2017-12-29T06:41:34.551Z,75.68
2017-12-29T06:42:34.480Z,74.07
2017-12-29T06:44:27.557Z,75.49
2017-12-29T06:45:27.160Z,72.75
2017-12-29T06:47:20.480Z,77.48
2017-12-29T06:48:20.405Z,74.93
2017-12-29T06:50:14.726Z,76.53
2017-12-29T06:51:14.894Z,75.87
2017-12-29T06:53:07.861Z,73.88
2017-12-29T06:54:07.869Z,75.68
2017-12-29T06:56:00.914Z,73.79
2017-12-29T06:57:00.796Z,70.76
2017-12-29T06:58:53.911Z,72.75
2017-12-29T06:59:53.773Z,74.36
2017-12-29T07:01:46.798Z,74.17
2017-12-29T07:02:46.346Z,72.18
2017-12-29T07:04:51.967Z,71.80
2017-12-29T07:05:51.595Z,74.83
2017-12-29T07:07:46.446Z,69.72
2017-12-29T07:08:46.320Z,70.39
2017-12-29T07:10:39.320Z,68.30
2017-12-29T07:11:38.927Z,69.82
2017-12-29T07:13:31.960Z,74.55
2017-12-29T07:14:31.884Z,72.75
2017-12-29T07:16:25.264Z,72.47
2017-12-29T07:17:24.840Z,75.87
2017-12-29T07:19:18.329Z,72.56
2017-12-29T07:20:17.926Z,76.91
2017-12-29T07:22:12.733Z,77.01
2017-12-29T07:23:12.633Z,75.78
2017-12-29T07:25:06.210Z,78.05
2017-12-29T07:26:05.883Z,79.75
2017-12-29T07:28:00.695Z,78.05
2017-12-29T07:29:00.568Z,76.06
2017-12-29T07:30:53.652Z,70.10
2017-12-29T07:31:53.557Z,72.18
2017-12-29T07:33:46.618Z,76.15
2017-12-29T07:34:46.584Z,78.42
2017-12-29T07:36:41.028Z,77.48
2017-12-29T07:37:41.007Z,76.72
2017-12-29T07:39:34.589Z,72.94
2017-12-29T07:40:34.100Z,72.28
2017-12-29T07:42:27.552Z,76.53
2017-12-29T07:43:27.038Z,74.64
2017-12-29T07:45:20.424Z,77.20
2017-12-29T07:46:20.414Z,71.04
2017-12-29T07:48:15.313Z,77.76
2017-12-29T07:49:14.846Z,78.90
2017-12-29T07:51:07.859Z,75.87
2017-12-29T07:52:07.453Z,75.87
2017-12-29T07:54:00.576Z,79.37
2017-12-29T07:55:00.794Z,79.28
2017-12-29T07:56:55.337Z,72.28
2017-12-29T07:57:55.386Z,72.09
2017-12-29T07:59:48.413Z,74.55
2017-12-29T08:00:48.693Z,75.12
2017-12-29T08:02:41.489Z,74.17
2017-12-29T08:03:41.641Z,72.85
2017-12-29T08:05:36.276Z,75.87
2017-12-29T08:06:35.804Z,74.26
2017-12-29T08:08:30.645Z,78.42
2017-12-29T08:09:30.521Z,79.56
2017-12-29T08:11:24.524Z,75.49
2017-12-29T08:12:23.741Z,76.25
2017-12-29T08:14:18.694Z,77.10
2017-12-29T08:15:18.146Z,78.14
2017-12-29T08:17:12.053Z,78.05
2017-12-29T08:18:11.953Z,79.94
2017-12-29T08:20:06.634Z,75.21
2017-12-29T08:21:06.110Z,75.02
2017-12-29T08:23:00.025Z,78.42
2017-12-29T08:23:59.612Z,76.91
2017-12-29T08:25:52.632Z,77.42
2017-12-29T08:26:52.555Z,74.96
2017-12-29T08:28:45.945Z,76.95
2017-12-29T08:29:45.500Z,78.85
2017-12-29T08:31:38.889Z,79.69
2017-12-29T08:32:38.533Z,81.21
2017-12-29T08:34:32.302Z,77.80
2017-12-29T08:35:32.290Z,80.83
2017-12-29T08:37:25.761Z,83.67
2017-12-29T08:38:25.368Z,76.57
2017-12-29T08:40:18.763Z,82.53
2017-12-29T08:41:18.354Z,82.63
2017-12-29T08:43:11.669Z,83.20
2017-12-29T08:44:11.266Z,78.75
2017-12-29T08:46:04.825Z,78.56
2017-12-29T08:47:04.382Z,81.87
2017-12-29T08:48:58.922Z,85.19
2017-12-29T08:49:59.113Z,90.96
2017-12-29T08:51:52.711Z,95.69
2017-12-29T08:52:52.311Z,90.86
2017-12-29T08:54:46.896Z,94.60
2017-12-29T08:55:47.129Z,96.83
2017-12-29T08:57:40.680Z,96.31
2017-12-29T08:58:40.263Z,95.45
2017-12-29T09:00:33.601Z,85.32
2017-12-29T09:01:33.197Z,92.90
2017-12-29T09:03:26.795Z,97.73
2017-12-29T09:04:26.961Z,99.52
2017-12-29T09:06:19.735Z,96.97
2017-12-29T09:07:19.628Z,99.99
2017-12-29T09:08:19.617Z,98.58
2017-12-29T09:09:19.597Z,93.65
2017-12-29T09:10:19.575Z,98.77
2017-12-29T09:11:19.465Z,94.89
2017-12-29T09:12:19.413Z,95.55
2017-12-29T09:13:19.331Z,96.78
2017-12-29T09:14:19.312Z,95.93
2017-12-29T09:15:19.245Z,96.12
2017-12-29T09:16:19.292Z,96.12
2017-12-29T09:17:19.213Z,97.82
2017-12-29T09:18:19.143Z,95.26
2017-12-29T09:19:19.076Z,93.56
2017-12-29T09:20:19.076Z,92.19
2017-12-29T09:21:18.992Z,90.30
2017-12-29T09:22:18.946Z,85.85
2017-12-29T09:23:18.922Z,91.24
2017-12-29T09:24:18.867Z,90.48
2017-12-29T09:25:18.815Z,92.19
2017-12-29T09:26:18.780Z,90.01
2017-12-29T09:27:18.752Z,90.67
2017-12-29T09:28:18.765Z,89.54
2017-12-29T09:29:18.640Z,86.98
2017-12-29T09:30:18.641Z,86.32
2017-12-29T09:31:18.551Z,92.47
2017-12-29T09:32:18.520Z,93.42
2017-12-29T09:33:18.469Z,97.16
2017-12-29T09:34:18.420Z,99.99
2017-12-29T09:35:18.372Z,99.99
2017-12-29T09:36:18.335Z,99.99
2017-12-29T09:37:18.299Z,99.99
2017-12-29T09:38:18.237Z,99.99
2017-12-29T09:39:18.226Z,99.99
2017-12-29T09:40:18.183Z,99.99
2017-12-29T09:41:18.126Z,99.99
2017-12-29T09:42:18.074Z,99.99
2017-12-29T09:43:18.053Z,99.99
2017-12-29T09:44:17.997Z,99.99
2017-12-29T09:45:17.944Z,99.99
2017-12-29T09:46:17.923Z,99.99
2017-12-29T09:47:17.872Z,99.99
2017-12-29T09:48:17.836Z,99.99
2017-12-29T09:49:17.794Z,99.99
2017-12-29T09:50:17.757Z,99.99
2017-12-29T09:51:17.731Z,99.99
2017-12-29T09:52:17.690Z,99.99
2017-12-29T09:53:17.661Z,99.99
2017-12-29T09:54:17.617Z,99.99
2017-12-29T09:55:17.588Z,99.99
2017-12-29T09:56:17.573Z,99.99
2017-12-29T09:57:17.524Z,99.99
2017-12-29T09:58:17.456Z,99.99
2017-12-29T09:59:17.437Z,99.99
2017-12-29T10:00:17.392Z,99.99
2017-12-29T10:01:17.344Z,99.99
2017-12-29T10:02:17.332Z,99.99
2017-12-29T10:03:17.306Z,99.99
2017-12-29T10:04:17.263Z,99.99
2017-12-29T10:05:17.238Z,99.99
2017-12-29T10:06:17.190Z,99.99
2017-12-29T10:07:17.156Z,99.99
2017-12-29T10:08:17.128Z,99.99
2017-12-29T10:09:17.101Z,99.99
2017-12-29T10:10:17.064Z,99.99
2017-12-29T10:11:17.015Z,99.99
2017-12-29T10:12:16.976Z,99.99
2017-12-29T10:13:16.975Z,99.99
2017-12-29T10:14:16.915Z,99.99
2017-12-29T10:15:16.891Z,99.99
2017-12-29T10:16:16.863Z,99.99
2017-12-29T10:17:16.820Z,99.99
2017-12-29T10:18:16.778Z,99.99
2017-12-29T10:19:16.741Z,99.99
2017-12-29T10:20:16.741Z,99.99
2017-12-29T10:21:16.697Z,99.99
2017-12-29T10:22:16.639Z,99.99
2017-12-29T10:23:16.618Z,99.99
2017-12-29T10:24:16.591Z,99.99
2017-12-29T10:25:16.555Z,99.99
2017-12-29T10:26:16.512Z,99.99
2017-12-29T10:27:16.473Z,99.99
2017-12-29T10:28:16.473Z,99.99
2017-12-29T10:29:16.419Z,99.99
2017-12-29T10:30:16.372Z,99.99
2017-12-29T10:31:16.341Z,99.99
2017-12-29T10:32:16.310Z,99.99
2017-12-29T10:33:16.273Z,99.99
2017-12-29T10:34:16.236Z,99.99
2017-12-29T10:35:16.205Z,99.99
2017-12-29T10:36:16.176Z,99.99
2017-12-29T10:37:16.138Z,99.99
2017-12-29T10:38:16.091Z,99.99
2017-12-29T10:39:16.077Z,99.99
2017-12-29T10:40:16.028Z,99.99
2017-12-29T10:41:15.991Z,99.99
2017-12-29T10:42:15.974Z,99.99
2017-12-29T10:43:15.920Z,99.99
2017-12-29T10:44:15.868Z,99.99
2017-12-29T10:45:15.849Z,99.99
2017-12-29T10:46:15.788Z,99.99
2017-12-29T10:47:15.737Z,99.99
2017-12-29T10:48:15.724Z,99.99
2017-12-29T10:49:15.705Z,99.99
2017-12-29T10:50:15.629Z,99.99
2017-12-29T10:51:15.614Z,99.99
2017-12-29T10:52:15.579Z,99.99
2017-12-29T10:53:15.522Z,99.99
2017-12-29T10:54:15.470Z,99.99
2017-12-29T10:55:15.435Z,99.99
2017-12-29T10:56:15.387Z,99.99
2017-12-29T10:57:15.359Z,99.99
2017-12-29T10:58:15.317Z,99.99
2017-12-29T10:59:15.288Z,99.99
2017-12-29T11:00:15.230Z,99.99
2017-12-29T11:01:15.203Z,99.99
2017-12-29T11:02:15.163Z,99.99
2017-12-29T11:03:15.101Z,99.99
2017-12-29T11:04:15.068Z,99.99
2017-12-29T11:05:15.027Z,99.99
2017-12-29T11:06:14.987Z,99.99
2017-12-29T11:07:14.926Z,99.99
2017-12-29T11:08:14.906Z,99.99
2017-12-29T11:09:14.869Z,99.99
2017-12-29T11:10:14.798Z,99.99
2017-12-29T11:11:14.780Z,99.99
2017-12-29T11:12:14.710Z,99.99
2017-12-29T11:13:14.680Z,99.99
2017-12-29T11:14:14.657Z,99.99
2017-12-29T11:15:14.597Z,99.99
2017-12-29T11:16:14.545Z,99.99
2017-12-29T11:17:14.499Z,99.99
2017-12-29T11:18:14.498Z,99.99
2017-12-29T11:19:14.422Z,99.99
2017-12-29T11:20:14.385Z,99.99
2017-12-29T11:21:14.346Z,99.99
2017-12-29T11:22:14.288Z,99.99
2017-12-29T11:23:14.264Z,99.99
2017-12-29T11:24:14.207Z,99.99
2017-12-29T11:25:14.172Z,99.99
2017-12-29T11:26:14.194Z,99.99
2017-12-29T11:27:14.119Z,99.99
2017-12-29T11:28:14.085Z,99.99
2017-12-29T11:29:14.008Z,99.99
2017-12-29T11:30:14.018Z,99.99
2017-12-29T11:31:13.945Z,99.99
2017-12-29T11:32:13.905Z,99.63
2017-12-29T11:33:13.860Z,97.17
2017-12-29T11:34:13.837Z,94.18
2017-12-29T11:35:13.782Z,88.90
2017-12-29T11:36:13.744Z,88.81
2017-12-29T11:37:13.722Z,99.35
2017-12-29T11:38:13.666Z,99.99
2017-12-29T11:39:13.665Z,99.99
2017-12-29T11:40:13.623Z,99.99
2017-12-29T11:41:13.586Z,99.99
2017-12-29T11:42:13.513Z,99.99
2017-12-29T11:43:13.484Z,99.99
2017-12-29T11:44:13.469Z,99.99
2017-12-29T11:45:13.459Z,99.99
2017-12-29T11:46:13.372Z,99.99
2017-12-29T11:47:13.361Z,99.99
2017-12-29T11:48:13.306Z,99.99
2017-12-29T11:49:13.283Z,99.99
2017-12-29T11:50:13.239Z,99.99
2017-12-29T11:51:13.228Z,99.99
2017-12-29T11:52:13.155Z,99.99
2017-12-29T11:53:13.144Z,99.99
2017-12-29T11:54:13.075Z,99.99
2017-12-29T11:55:13.045Z,99.99
2017-12-29T11:56:13.047Z,99.99
2017-12-29T11:57:12.972Z,99.99
2017-12-29T11:58:12.955Z,99.99
2017-12-29T11:59:12.900Z,99.99
2017-12-29T12:00:12.856Z,99.99
2017-12-29T12:01:12.811Z,99.99
2017-12-29T12:02:12.820Z,99.99
2017-12-29T12:03:12.725Z,99.99
2017-12-29T12:04:12.717Z,99.99
2017-12-29T12:05:12.647Z,99.99
2017-12-29T12:06:12.620Z,99.99
2017-12-29T12:07:12.638Z,99.99
2017-12-29T12:08:12.543Z,99.99
2017-12-29T12:09:12.512Z,99.99
2017-12-29T12:10:12.473Z,99.99
2017-12-29T12:11:12.427Z,99.99
2017-12-29T12:12:12.373Z,99.99
2017-12-29T12:13:12.330Z,99.99
2017-12-29T12:14:12.330Z,99.99
2017-12-29T12:15:12.255Z,99.99
2017-12-29T12:16:12.245Z,99.99
2017-12-29T12:17:12.176Z,99.99
2017-12-29T12:18:12.146Z,99.99
2017-12-29T12:19:12.085Z,99.99
2017-12-29T12:20:12.081Z,99.99
2017-12-29T12:21:12.019Z,99.99
2017-12-29T12:22:11.995Z,99.99
2017-12-29T12:23:11.919Z,99.99
2017-12-29T12:24:11.908Z,99.99
2017-12-29T12:25:11.846Z,99.99
2017-12-29T12:26:11.808Z,99.99
2017-12-29T12:27:11.747Z,99.99
2017-12-29T12:28:11.917Z,99.99
2017-12-29T12:29:11.704Z,99.99
2017-12-29T12:30:11.648Z,99.99
2017-12-29T12:31:11.593Z,99.99
2017-12-29T12:32:11.583Z,99.99
2017-12-29T12:33:11.523Z,99.99
2017-12-29T12:34:11.487Z,99.99
2017-12-29T12:35:11.422Z,99.99
2017-12-29T12:36:11.394Z,99.99
2017-12-29T12:37:11.338Z,99.99
2017-12-29T12:38:11.306Z,99.99
2017-12-29T12:39:11.244Z,99.99
2017-12-29T12:40:11.231Z,99.99
2017-12-29T12:41:11.193Z,99.99
2017-12-29T12:42:11.122Z,99.99
2017-12-29T12:43:11.071Z,99.99
2017-12-29T12:44:11.090Z,99.99
2017-12-29T12:45:11.104Z,99.99
2017-12-29T12:46:10.966Z,99.99
2017-12-29T12:47:10.918Z,99.99
2017-12-29T12:48:10.858Z,99.99
2017-12-29T12:49:10.856Z,99.99
2017-12-29T12:50:10.772Z,99.99
2017-12-29T12:51:10.728Z,99.99
2017-12-29T12:52:10.673Z,99.99
2017-12-29T12:53:10.651Z,99.99
2017-12-29T12:54:10.609Z,99.99
2017-12-29T12:55:10.540Z,99.99
2017-12-29T12:56:10.518Z,99.99
2017-12-29T12:57:10.486Z,99.99
2017-12-29T12:58:10.407Z,99.99
2017-12-29T12:59:10.371Z,99.99
2017-12-29T13:00:10.319Z,99.99
2017-12-29T13:01:10.305Z,99.99
2017-12-29T13:02:10.244Z,99.99
2017-12-29T13:03:10.188Z,99.99
2017-12-29T13:04:10.134Z,99.99
2017-12-29T13:05:10.100Z,99.99
2017-12-29T13:06:10.064Z,99.99
2017-12-29T13:07:10.046Z,99.99
2017-12-29T13:08:09.984Z,99.99
2017-12-29T13:09:09.917Z,99.99
2017-12-29T13:10:09.889Z,99.99
2017-12-29T13:11:09.827Z,99.99
2017-12-29T13:12:09.783Z,99.99
2017-12-29T13:13:09.783Z,99.99
2017-12-29T13:14:09.711Z,99.99
2017-12-29T13:15:09.666Z,99.99
2017-12-29T13:16:09.613Z,99.99
2017-12-29T13:17:09.564Z,99.99
2017-12-29T13:18:09.529Z,99.99
2017-12-29T13:19:09.480Z,99.99
2017-12-29T13:20:09.456Z,99.99
2017-12-29T13:21:09.374Z,99.99
2017-12-29T13:22:09.336Z,99.99
2017-12-29T13:23:09.386Z,99.99
2017-12-29T13:24:09.251Z,99.99
2017-12-29T13:25:09.208Z,99.99
2017-12-29T13:26:09.976Z,99.99
2017-12-29T13:27:09.114Z,99.99
2017-12-29T13:28:09.061Z,99.99
2017-12-29T13:29:09.036Z,99.99
2017-12-29T13:30:08.986Z,99.99
2017-12-29T13:31:08.929Z,99.99
2017-12-29T13:32:08.894Z,99.99
2017-12-29T13:33:08.876Z,99.99
2017-12-29T13:34:08.796Z,99.99
2017-12-29T13:35:08.735Z,99.99
2017-12-29T13:36:08.705Z,99.99
2017-12-29T13:37:08.651Z,99.99
2017-12-29T13:38:08.605Z,99.99
2017-12-29T13:39:08.567Z,99.99
2017-12-29T13:40:08.538Z,99.99
2017-12-29T13:41:08.517Z,99.99
2017-12-29T13:42:08.424Z,99.99
2017-12-29T13:43:08.384Z,99.99
2017-12-29T13:44:08.357Z,99.99
2017-12-29T13:45:08.341Z,99.99
2017-12-29T13:46:08.249Z,99.99
2017-12-29T13:47:08.200Z,99.99
2017-12-29T13:48:08.163Z,99.99
2017-12-29T13:49:08.118Z,99.99
2017-12-29T13:50:08.068Z,99.99
2017-12-29T13:51:08.046Z,99.99
2017-12-29T13:52:07.973Z,99.99
2017-12-29T13:53:07.952Z,99.99
2017-12-29T13:54:07.883Z,99.99
2017-12-29T13:55:07.832Z,99.99
2017-12-29T13:56:07.813Z,99.99
2017-12-29T13:57:07.743Z,99.99
2017-12-29T13:58:07.714Z,99.99
2017-12-29T13:59:07.670Z,99.99
2017-12-29T14:00:07.606Z,99.99
2017-12-29T14:01:07.568Z,99.99
2017-12-29T14:02:07.515Z,99.99
2017-12-29T14:03:07.497Z,99.99
2017-12-29T14:04:07.435Z,99.99
2017-12-29T14:05:07.376Z,99.99
2017-12-29T14:06:07.328Z,99.99
2017-12-29T14:07:07.321Z,99.99
2017-12-29T14:08:07.239Z,99.99
2017-12-29T14:09:07.198Z,99.99
2017-12-29T14:10:07.162Z,99.99
2017-12-29T14:11:07.093Z,99.99
2017-12-29T14:12:07.071Z,99.99
2017-12-29T14:13:07.035Z,99.99
2017-12-29T14:14:06.974Z,99.99
2017-12-29T14:15:06.925Z,99.99
2017-12-29T14:16:06.896Z,99.99
2017-12-29T14:17:06.840Z,99.99
2017-12-29T14:18:06.792Z,99.99
2017-12-29T14:19:06.774Z,99.99
2017-12-29T14:20:06.707Z,99.99
2017-12-29T14:21:06.671Z,99.99
2017-12-29T14:22:06.609Z,99.99
2017-12-29T14:23:06.578Z,99.99
2017-12-29T14:24:06.524Z,99.99
2017-12-29T14:25:06.494Z,99.99
2017-12-29T14:26:06.591Z,99.99
2017-12-29T14:27:06.392Z,99.99
2017-12-29T14:28:06.346Z,99.99
2017-12-29T14:29:06.309Z,99.99
2017-12-29T14:30:06.246Z,99.99
2017-12-29T14:31:06.216Z,99.99
2017-12-29T14:32:06.163Z,99.99
2017-12-29T14:33:06.123Z,99.99
2017-12-29T14:34:06.070Z,99.99
2017-12-29T14:35:06.042Z,99.99
2017-12-29T14:36:05.986Z,99.99
2017-12-29T14:37:05.991Z,99.99
2017-12-29T14:38:05.895Z,99.99
2017-12-29T14:39:05.859Z,99.99
2017-12-29T14:40:05.806Z,99.99
2017-12-29T14:41:05.790Z,99.99
2017-12-29T14:42:05.713Z,99.99
2017-12-29T14:43:05.704Z,99.99
2017-12-29T14:44:05.632Z,99.99
2017-12-29T14:45:05.573Z,99.99
2017-12-29T14:46:05.559Z,99.99
2017-12-29T14:47:05.499Z,99.99
2017-12-29T14:48:05.453Z,99.99
2017-12-29T14:49:05.430Z,99.99
2017-12-29T14:50:05.335Z,99.99
2017-12-29T14:51:05.435Z,99.99
2017-12-29T14:52:05.246Z,99.99
2017-12-29T14:53:05.316Z,99.99
2017-12-29T14:54:05.207Z,99.99
2017-12-29T14:55:05.115Z,99.99
2017-12-29T14:56:05.218Z,99.99
2017-12-29T14:57:05.041Z,99.99
2017-12-29T14:58:04.977Z,99.99
2017-12-29T14:59:04.924Z,99.99
2017-12-29T15:00:04.971Z,99.99
2017-12-29T15:01:04.928Z,99.99
2017-12-29T15:02:04.801Z,99.99
2017-12-29T15:03:04.760Z,99.99
2017-12-29T15:04:04.721Z,99.99
2017-12-29T15:05:04.654Z,99.99
2017-12-29T15:06:04.657Z,99.99
2017-12-29T15:07:04.580Z,99.99
2017-12-29T15:08:04.555Z,99.99
2017-12-29T15:09:04.504Z,99.99
2017-12-29T15:10:04.495Z,99.99
2017-12-29T15:11:04.404Z,99.99
2017-12-29T15:12:04.348Z,99.99
2017-12-29T15:13:04.295Z,99.99
2017-12-29T15:14:04.254Z,99.99
2017-12-29T15:15:04.212Z,99.99
2017-12-29T15:16:04.173Z,99.99
2017-12-29T15:17:04.133Z,99.99
2017-12-29T15:18:04.055Z,99.99
2017-12-29T15:19:04.028Z,99.99
2017-12-29T15:20:04.014Z,99.99
2017-12-29T15:21:03.935Z,99.99
2017-12-29T15:22:03.893Z,99.99
2017-12-29T15:23:03.881Z,99.99
2017-12-29T15:24:03.878Z,99.99
2017-12-29T15:25:03.748Z,99.99
2017-12-29T15:26:03.703Z,99.99
2017-12-29T15:27:03.675Z,99.99
2017-12-29T15:28:03.643Z,99.99
2017-12-29T15:29:03.553Z,99.99
2017-12-29T15:30:03.636Z,99.99
2017-12-29T15:31:03.486Z,99.99
2017-12-29T15:32:03.418Z,99.99
2017-12-29T15:33:03.415Z,99.99
2017-12-29T15:34:03.345Z,99.99
2017-12-29T15:35:03.284Z,99.99
2017-12-29T15:36:03.250Z,99.99
2017-12-29T15:37:03.220Z,99.99
2017-12-29T15:38:03.179Z,99.99
2017-12-29T15:39:03.102Z,99.99
2017-12-29T15:40:03.109Z,99.99
2017-12-29T15:41:02.995Z,99.99